sensor_id;sensor_type;location;lat;lon;timestamp;P1;durP1;ratioP1;P2;durP2;ratioP2
75645;SDS011;64237;52.438;13.240;2022-10-15T00:01:22;19.10;;;9.90;;
75645;SDS011;64237;52.438;13.240;2022-10-15T00:03:48;17.67;;;9.27;;
75645;SDS011;64237;52.438;13.240;2022-10-15T00:06:17;17.13;;;9.63;;
75645;SDS011;64237;52.438;13.240;2022-10-15T00:08:43;18.33;;;9.77;;
75645;SDS011;64237;52.438;13.240;2022-10-15T00:11:11;17.75;;;9.73;;
75645;SDS011;64237;52.438;13.240;2022-10-15T00:13:39;20.77;;;10.15;;
75645;SDS011;64237;52.438;13.240;2022-10-15T00:16:06;18.92;;;10.13;;
75645;SDS011;64237;52.438;13.240;2022-10-15T00:18:33;17.70;;;10.05;;
75645;SDS011;64237;52.438;13.240;2022-10-15T00:20:59;18.20;;;10.07;;
75645;SDS011;64237;52.438;13.240;2022-10-15T00:23:25;22.23;;;10.82;;
75645;SDS011;64237;52.438;13.240;2022-10-15T00:25:59;18.67;;;10.47;;
75645;SDS011;64237;52.438;13.240;2022-10-15T00:28:35;18.95;;;10.00;;
75645;SDS011;64237;52.438;13.240;2022-10-15T00:31:01;19.38;;;10.10;;
75645;SDS011;64237;52.438;13.240;2022-10-15T00:33:28;17.63;;;9.52;;
75645;SDS011;64237;52.438;13.240;2022-10-15T00:36:00;19.45;;;10.30;;
75645;SDS011;64237;52.438;13.240;2022-10-15T00:38:27;20.48;;;10.82;;
75645;SDS011;64237;52.438;13.240;2022-10-15T00:40:52;17.70;;;9.88;;
75645;SDS011;64237;52.438;13.240;2022-10-15T00:43:33;19.92;;;10.98;;
75645;SDS011;64237;52.438;13.240;2022-10-15T00:46:05;18.35;;;9.38;;
75645;SDS011;64237;52.438;13.240;2022-10-15T00:48:39;17.42;;;9.80;;
75645;SDS011;64237;52.438;13.240;2022-10-15T00:51:05;19.75;;;10.43;;
75645;SDS011;64237;52.438;13.240;2022-10-15T00:53:30;19.27;;;10.27;;
75645;SDS011;64237;52.438;13.240;2022-10-15T00:55:56;22.00;;;10.68;;
75645;SDS011;64237;52.438;13.240;2022-10-15T00:58:23;18.55;;;10.02;;
75645;SDS011;64237;52.438;13.240;2022-10-15T01:00:55;17.83;;;10.43;;
75645;SDS011;64237;52.438;13.240;2022-10-15T01:03:21;20.60;;;10.55;;
75645;SDS011;64237;52.438;13.240;2022-10-15T01:05:47;19.23;;;10.07;;
75645;SDS011;64237;52.438;13.240;2022-10-15T01:08:15;18.02;;;9.77;;
75645;SDS011;64237;52.438;13.240;2022-10-15T01:10:43;21.77;;;9.95;;
75645;SDS011;64237;52.438;13.240;2022-10-15T01:13:28;18.80;;;9.77;;
75645;SDS011;64237;52.438;13.240;2022-10-15T01:16:07;17.70;;;9.07;;
75645;SDS011;64237;52.438;13.240;2022-10-15T01:26:52;18.38;;;9.27;;
75645;SDS011;64237;52.438;13.240;2022-10-15T01:29:31;18.10;;;9.55;;
75645;SDS011;64237;52.438;13.240;2022-10-15T01:37:45;18.05;;;9.18;;
75645;SDS011;64237;52.438;13.240;2022-10-15T01:40:42;18.45;;;9.00;;
75645;SDS011;64237;52.438;13.240;2022-10-15T01:43:14;19.45;;;9.55;;
75645;SDS011;64237;52.438;13.240;2022-10-15T01:48:22;17.83;;;8.40;;
75645;SDS011;64237;52.438;13.240;2022-10-15T01:50:52;21.85;;;10.45;;
75645;SDS011;64237;52.438;13.240;2022-10-15T01:53:22;17.90;;;9.77;;
75645;SDS011;64237;52.438;13.240;2022-10-15T01:55:55;19.60;;;9.90;;
75645;SDS011;64237;52.438;13.240;2022-10-15T01:58:24;17.30;;;9.70;;
75645;SDS011;64237;52.438;13.240;2022-10-15T02:00:50;18.80;;;9.93;;
75645;SDS011;64237;52.438;13.240;2022-10-15T02:03:18;18.17;;;10.15;;
75645;SDS011;64237;52.438;13.240;2022-10-15T02:05:46;18.88;;;10.45;;
75645;SDS011;64237;52.438;13.240;2022-10-15T02:10:53;17.23;;;9.98;;
75645;SDS011;64237;52.438;13.240;2022-10-15T02:16:23;19.10;;;9.47;;
75645;SDS011;64237;52.438;13.240;2022-10-15T02:21:41;16.15;;;9.20;;
75645;SDS011;64237;52.438;13.240;2022-10-15T02:24:31;18.80;;;9.65;;
75645;SDS011;64237;52.438;13.240;2022-10-15T02:27:01;19.38;;;10.07;;
75645;SDS011;64237;52.438;13.240;2022-10-15T02:29:29;20.60;;;9.80;;
75645;SDS011;64237;52.438;13.240;2022-10-15T02:31:57;20.60;;;11.10;;
75645;SDS011;64237;52.438;13.240;2022-10-15T02:34:26;20.38;;;10.63;;
75645;SDS011;64237;52.438;13.240;2022-10-15T02:36:56;21.48;;;10.60;;
75645;SDS011;64237;52.438;13.240;2022-10-15T02:39:22;24.17;;;11.40;;
75645;SDS011;64237;52.438;13.240;2022-10-15T02:41:48;19.70;;;9.73;;
75645;SDS011;64237;52.438;13.240;2022-10-15T02:44:15;20.90;;;10.27;;
75645;SDS011;64237;52.438;13.240;2022-10-15T02:46:40;19.60;;;10.10;;
75645;SDS011;64237;52.438;13.240;2022-10-15T02:49:06;16.75;;;9.43;;
75645;SDS011;64237;52.438;13.240;2022-10-15T02:51:31;18.80;;;9.90;;
75645;SDS011;64237;52.438;13.240;2022-10-15T02:53:59;17.23;;;9.13;;
75645;SDS011;64237;52.438;13.240;2022-10-15T02:56:25;18.48;;;10.18;;
75645;SDS011;64237;52.438;13.240;2022-10-15T02:58:50;21.75;;;10.60;;
75645;SDS011;64237;52.438;13.240;2022-10-15T03:01:16;17.17;;;9.57;;
75645;SDS011;64237;52.438;13.240;2022-10-15T03:03:41;19.73;;;10.65;;
75645;SDS011;64237;52.438;13.240;2022-10-15T03:06:07;17.92;;;9.50;;
75645;SDS011;64237;52.438;13.240;2022-10-15T03:08:32;17.37;;;9.57;;
75645;SDS011;64237;52.438;13.240;2022-10-15T03:11:00;19.73;;;9.60;;
75645;SDS011;64237;52.438;13.240;2022-10-15T03:13:26;18.00;;;8.88;;
75645;SDS011;64237;52.438;13.240;2022-10-15T03:15:52;19.05;;;10.40;;
75645;SDS011;64237;52.438;13.240;2022-10-15T03:18:17;24.20;;;12.25;;
75645;SDS011;64237;52.438;13.240;2022-10-15T03:20:43;22.20;;;10.52;;
75645;SDS011;64237;52.438;13.240;2022-10-15T03:23:08;19.92;;;10.02;;
75645;SDS011;64237;52.438;13.240;2022-10-15T03:25:33;20.15;;;10.10;;
75645;SDS011;64237;52.438;13.240;2022-10-15T03:27:59;18.45;;;9.85;;
75645;SDS011;64237;52.438;13.240;2022-10-15T03:30:24;19.55;;;10.15;;
75645;SDS011;64237;52.438;13.240;2022-10-15T03:32:49;18.73;;;9.67;;
75645;SDS011;64237;52.438;13.240;2022-10-15T03:35:15;18.50;;;10.30;;
75645;SDS011;64237;52.438;13.240;2022-10-15T03:37:40;19.67;;;9.68;;
75645;SDS011;64237;52.438;13.240;2022-10-15T03:40:06;20.07;;;10.03;;
75645;SDS011;64237;52.438;13.240;2022-10-15T03:42:32;21.00;;;10.20;;
75645;SDS011;64237;52.438;13.240;2022-10-15T03:44:57;17.27;;;9.40;;
75645;SDS011;64237;52.438;13.240;2022-10-15T03:47:22;18.40;;;9.53;;
75645;SDS011;64237;52.438;13.240;2022-10-15T03:49:47;19.50;;;9.37;;
75645;SDS011;64237;52.438;13.240;2022-10-15T03:52:13;18.10;;;9.35;;
75645;SDS011;64237;52.438;13.240;2022-10-15T03:54:38;16.95;;;9.27;;
75645;SDS011;64237;52.438;13.240;2022-10-15T03:57:04;17.90;;;9.43;;
75645;SDS011;64237;52.438;13.240;2022-10-15T03:59:29;20.08;;;10.02;;
75645;SDS011;64237;52.438;13.240;2022-10-15T04:01:54;16.02;;;9.23;;
75645;SDS011;64237;52.438;13.240;2022-10-15T04:04:20;16.77;;;9.38;;
75645;SDS011;64237;52.438;13.240;2022-10-15T04:06:45;18.83;;;9.23;;
75645;SDS011;64237;52.438;13.240;2022-10-15T04:09:12;15.98;;;9.00;;
75645;SDS011;64237;52.438;13.240;2022-10-15T04:11:38;17.63;;;9.30;;
75645;SDS011;64237;52.438;13.240;2022-10-15T04:14:03;18.88;;;8.98;;
75645;SDS011;64237;52.438;13.240;2022-10-15T04:16:29;17.83;;;8.88;;
75645;SDS011;64237;52.438;13.240;2022-10-15T04:18:55;15.75;;;8.60;;
75645;SDS011;64237;52.438;13.240;2022-10-15T04:21:21;17.17;;;9.30;;
75645;SDS011;64237;52.438;13.240;2022-10-15T04:23:47;17.00;;;8.77;;
75645;SDS011;64237;52.438;13.240;2022-10-15T04:26:12;17.30;;;8.65;;
75645;SDS011;64237;52.438;13.240;2022-10-15T04:28:37;18.67;;;9.20;;
75645;SDS011;64237;52.438;13.240;2022-10-15T04:31:03;17.92;;;9.38;;
75645;SDS011;64237;52.438;13.240;2022-10-15T04:33:28;17.80;;;8.43;;
75645;SDS011;64237;52.438;13.240;2022-10-15T04:36:12;17.80;;;9.40;;
75645;SDS011;64237;52.438;13.240;2022-10-15T04:38:37;17.10;;;9.68;;
75645;SDS011;64237;52.438;13.240;2022-10-15T04:41:04;16.83;;;9.25;;
75645;SDS011;64237;52.438;13.240;2022-10-15T04:43:31;16.58;;;8.95;;
75645;SDS011;64237;52.438;13.240;2022-10-15T04:45:58;16.75;;;8.88;;
75645;SDS011;64237;52.438;13.240;2022-10-15T04:48:26;17.38;;;8.98;;
75645;SDS011;64237;52.438;13.240;2022-10-15T04:50:53;20.52;;;9.65;;
75645;SDS011;64237;52.438;13.240;2022-10-15T04:53:18;18.60;;;9.48;;
75645;SDS011;64237;52.438;13.240;2022-10-15T04:55:44;17.08;;;8.95;;
75645;SDS011;64237;52.438;13.240;2022-10-15T04:58:09;18.27;;;9.10;;
75645;SDS011;64237;52.438;13.240;2022-10-15T05:00:35;17.23;;;9.00;;
75645;SDS011;64237;52.438;13.240;2022-10-15T05:03:00;16.43;;;9.00;;
75645;SDS011;64237;52.438;13.240;2022-10-15T05:05:25;15.93;;;8.87;;
75645;SDS011;64237;52.438;13.240;2022-10-15T05:07:51;18.70;;;9.67;;
75645;SDS011;64237;52.438;13.240;2022-10-15T05:10:16;15.63;;;8.43;;
75645;SDS011;64237;52.438;13.240;2022-10-15T05:12:41;18.60;;;9.07;;
75645;SDS011;64237;52.438;13.240;2022-10-15T05:15:07;16.13;;;8.32;;
75645;SDS011;64237;52.438;13.240;2022-10-15T05:17:32;15.55;;;8.18;;
75645;SDS011;64237;52.438;13.240;2022-10-15T05:19:58;18.02;;;9.10;;
75645;SDS011;64237;52.438;13.240;2022-10-15T05:22:23;17.52;;;9.55;;
75645;SDS011;64237;52.438;13.240;2022-10-15T05:24:49;14.93;;;8.05;;
75645;SDS011;64237;52.438;13.240;2022-10-15T05:27:14;16.40;;;8.38;;
75645;SDS011;64237;52.438;13.240;2022-10-15T05:29:40;18.02;;;8.45;;
75645;SDS011;64237;52.438;13.240;2022-10-15T05:32:05;14.50;;;7.85;;
75645;SDS011;64237;52.438;13.240;2022-10-15T05:34:30;14.88;;;8.43;;
75645;SDS011;64237;52.438;13.240;2022-10-15T05:36:56;14.80;;;8.37;;
75645;SDS011;64237;52.438;13.240;2022-10-15T05:39:21;15.32;;;8.05;;
75645;SDS011;64237;52.438;13.240;2022-10-15T05:41:47;17.13;;;8.68;;
75645;SDS011;64237;52.438;13.240;2022-10-15T05:44:13;14.98;;;8.23;;
75645;SDS011;64237;52.438;13.240;2022-10-15T05:46:39;15.23;;;7.93;;
75645;SDS011;64237;52.438;13.240;2022-10-15T05:49:04;16.13;;;8.23;;
75645;SDS011;64237;52.438;13.240;2022-10-15T05:51:29;17.57;;;7.97;;
75645;SDS011;64237;52.438;13.240;2022-10-15T05:53:55;16.10;;;8.07;;
75645;SDS011;64237;52.438;13.240;2022-10-15T05:56:21;16.33;;;8.20;;
75645;SDS011;64237;52.438;13.240;2022-10-15T05:58:47;15.73;;;8.65;;
75645;SDS011;64237;52.438;13.240;2022-10-15T06:01:12;15.35;;;8.32;;
75645;SDS011;64237;52.438;13.240;2022-10-15T06:03:39;14.88;;;7.80;;
75645;SDS011;64237;52.438;13.240;2022-10-15T06:06:16;17.52;;;9.00;;
75645;SDS011;64237;52.438;13.240;2022-10-15T06:08:46;14.50;;;8.27;;
75645;SDS011;64237;52.438;13.240;2022-10-15T06:11:12;15.88;;;8.30;;
75645;SDS011;64237;52.438;13.240;2022-10-15T06:13:38;15.70;;;8.63;;
75645;SDS011;64237;52.438;13.240;2022-10-15T06:16:05;15.60;;;8.40;;
75645;SDS011;64237;52.438;13.240;2022-10-15T06:18:31;16.52;;;8.57;;
75645;SDS011;64237;52.438;13.240;2022-10-15T06:20:56;14.25;;;7.70;;
75645;SDS011;64237;52.438;13.240;2022-10-15T06:23:21;15.85;;;7.93;;
75645;SDS011;64237;52.438;13.240;2022-10-15T06:25:48;17.02;;;8.38;;
75645;SDS011;64237;52.438;13.240;2022-10-15T06:28:13;14.27;;;8.13;;
75645;SDS011;64237;52.438;13.240;2022-10-15T06:30:39;15.80;;;8.52;;
75645;SDS011;64237;52.438;13.240;2022-10-15T06:33:04;15.57;;;8.35;;
75645;SDS011;64237;52.438;13.240;2022-10-15T06:35:30;15.50;;;8.18;;
75645;SDS011;64237;52.438;13.240;2022-10-15T06:38:01;16.33;;;8.27;;
75645;SDS011;64237;52.438;13.240;2022-10-15T06:40:27;15.80;;;8.50;;
75645;SDS011;64237;52.438;13.240;2022-10-15T06:42:53;17.42;;;8.77;;
75645;SDS011;64237;52.438;13.240;2022-10-15T06:45:18;15.80;;;8.13;;
75645;SDS011;64237;52.438;13.240;2022-10-15T06:47:44;16.92;;;8.10;;
75645;SDS011;64237;52.438;13.240;2022-10-15T06:50:11;14.98;;;8.30;;
75645;SDS011;64237;52.438;13.240;2022-10-15T06:52:36;14.88;;;8.05;;
75645;SDS011;64237;52.438;13.240;2022-10-15T06:55:02;13.43;;;7.88;;
75645;SDS011;64237;52.438;13.240;2022-10-15T06:57:28;15.30;;;8.30;;
75645;SDS011;64237;52.438;13.240;2022-10-15T06:59:54;16.92;;;8.23;;
75645;SDS011;64237;52.438;13.240;2022-10-15T07:02:19;18.27;;;8.77;;
75645;SDS011;64237;52.438;13.240;2022-10-15T07:04:45;14.35;;;8.40;;
75645;SDS011;64237;52.438;13.240;2022-10-15T07:07:10;16.02;;;8.00;;
75645;SDS011;64237;52.438;13.240;2022-10-15T07:09:36;16.88;;;9.20;;
75645;SDS011;64237;52.438;13.240;2022-10-15T07:12:02;18.42;;;9.65;;
75645;SDS011;64237;52.438;13.240;2022-10-15T07:14:28;17.13;;;9.60;;
75645;SDS011;64237;52.438;13.240;2022-10-15T07:16:53;17.73;;;9.32;;
75645;SDS011;64237;52.438;13.240;2022-10-15T07:19:19;15.82;;;8.45;;
75645;SDS011;64237;52.438;13.240;2022-10-15T07:21:44;15.85;;;8.85;;
75645;SDS011;64237;52.438;13.240;2022-10-15T07:24:10;17.63;;;9.48;;
75645;SDS011;64237;52.438;13.240;2022-10-15T07:26:35;17.23;;;9.15;;
75645;SDS011;64237;52.438;13.240;2022-10-15T07:29:01;18.80;;;9.43;;
75645;SDS011;64237;52.438;13.240;2022-10-15T07:31:27;15.40;;;8.77;;
75645;SDS011;64237;52.438;13.240;2022-10-15T07:33:53;14.98;;;8.27;;
75645;SDS011;64237;52.438;13.240;2022-10-15T07:36:18;16.93;;;8.97;;
75645;SDS011;64237;52.438;13.240;2022-10-15T07:38:44;15.95;;;8.73;;
75645;SDS011;64237;52.438;13.240;2022-10-15T07:41:10;15.45;;;8.40;;
75645;SDS011;64237;52.438;13.240;2022-10-15T07:43:36;15.73;;;8.93;;
75645;SDS011;64237;52.438;13.240;2022-10-15T07:46:02;16.13;;;8.57;;
75645;SDS011;64237;52.438;13.240;2022-10-15T07:48:28;16.35;;;8.57;;
75645;SDS011;64237;52.438;13.240;2022-10-15T07:50:54;15.65;;;8.43;;
75645;SDS011;64237;52.438;13.240;2022-10-15T07:53:21;14.25;;;7.72;;
75645;SDS011;64237;52.438;13.240;2022-10-15T07:55:46;16.58;;;8.18;;
75645;SDS011;64237;52.438;13.240;2022-10-15T07:58:11;13.43;;;7.90;;
75645;SDS011;64237;52.438;13.240;2022-10-15T08:00:37;14.13;;;7.70;;
75645;SDS011;64237;52.438;13.240;2022-10-15T08:03:02;14.40;;;7.40;;
75645;SDS011;64237;52.438;13.240;2022-10-15T08:05:27;11.67;;;6.80;;
75645;SDS011;64237;52.438;13.240;2022-10-15T08:07:53;14.20;;;7.00;;
75645;SDS011;64237;52.438;13.240;2022-10-15T08:10:18;13.65;;;6.70;;
75645;SDS011;64237;52.438;13.240;2022-10-15T08:12:43;11.90;;;6.80;;
75645;SDS011;64237;52.438;13.240;2022-10-15T08:15:09;13.30;;;6.25;;
75645;SDS011;64237;52.438;13.240;2022-10-15T08:17:34;11.32;;;5.72;;
75645;SDS011;64237;52.438;13.240;2022-10-15T08:20:00;14.20;;;6.93;;
75645;SDS011;64237;52.438;13.240;2022-10-15T08:22:25;10.82;;;5.93;;
75645;SDS011;64237;52.438;13.240;2022-10-15T08:24:50;12.70;;;5.93;;
75645;SDS011;64237;52.438;13.240;2022-10-15T08:27:16;12.07;;;5.88;;
75645;SDS011;64237;52.438;13.240;2022-10-15T08:29:42;11.88;;;5.78;;
75645;SDS011;64237;52.438;13.240;2022-10-15T08:32:07;11.53;;;6.50;;
75645;SDS011;64237;52.438;13.240;2022-10-15T08:34:32;11.63;;;5.97;;
75645;SDS011;64237;52.438;13.240;2022-10-15T08:36:58;10.52;;;5.53;;
75645;SDS011;64237;52.438;13.240;2022-10-15T08:39:23;9.93;;;5.25;;
75645;SDS011;64237;52.438;13.240;2022-10-15T08:41:50;10.85;;;5.43;;
75645;SDS011;64237;52.438;13.240;2022-10-15T08:44:25;9.80;;;4.95;;
75645;SDS011;64237;52.438;13.240;2022-10-15T08:46:53;9.88;;;5.05;;
75645;SDS011;64237;52.438;13.240;2022-10-15T08:49:34;11.20;;;5.25;;
75645;SDS011;64237;52.438;13.240;2022-10-15T08:52:52;10.27;;;4.60;;
75645;SDS011;64237;52.438;13.240;2022-10-15T08:55:09;10.15;;;4.63;;
75645;SDS011;64237;52.438;13.240;2022-10-15T08:57:39;9.45;;;4.57;;
75645;SDS011;64237;52.438;13.240;2022-10-15T09:00:33;7.72;;;3.97;;
75645;SDS011;64237;52.438;13.240;2022-10-15T09:06:00;8.55;;;4.40;;
75645;SDS011;64237;52.438;13.240;2022-10-15T09:08:45;7.25;;;3.78;;
75645;SDS011;64237;52.438;13.240;2022-10-15T09:13:45;8.32;;;4.13;;
75645;SDS011;64237;52.438;13.240;2022-10-15T09:16:16;7.97;;;3.92;;
75645;SDS011;64237;52.438;13.240;2022-10-15T09:18:47;9.77;;;4.20;;
75645;SDS011;64237;52.438;13.240;2022-10-15T09:21:15;7.15;;;3.95;;
75645;SDS011;64237;52.438;13.240;2022-10-15T09:23:41;7.57;;;4.00;;
75645;SDS011;64237;52.438;13.240;2022-10-15T09:28:48;6.88;;;3.78;;
75645;SDS011;64237;52.438;13.240;2022-10-15T09:31:28;7.32;;;3.47;;
75645;SDS011;64237;52.438;13.240;2022-10-15T09:34:03;8.57;;;4.50;;
75645;SDS011;64237;52.438;13.240;2022-10-15T09:36:40;9.50;;;4.82;;
75645;SDS011;64237;52.438;13.240;2022-10-15T09:44:23;8.23;;;3.80;;
75645;SDS011;64237;52.438;13.240;2022-10-15T09:46:51;9.15;;;4.55;;
75645;SDS011;64237;52.438;13.240;2022-10-15T09:49:19;9.20;;;4.43;;
75645;SDS011;64237;52.438;13.240;2022-10-15T09:54:48;6.68;;;3.72;;
75645;SDS011;64237;52.438;13.240;2022-10-15T09:57:34;9.90;;;4.28;;
75645;SDS011;64237;52.438;13.240;2022-10-15T10:00:04;10.23;;;3.90;;
75645;SDS011;64237;52.438;13.240;2022-10-15T10:02:33;8.23;;;4.55;;
75645;SDS011;64237;52.438;13.240;2022-10-15T10:05:02;8.15;;;4.18;;
75645;SDS011;64237;52.438;13.240;2022-10-15T10:07:44;8.20;;;4.63;;
75645;SDS011;64237;52.438;13.240;2022-10-15T10:10:26;8.65;;;4.15;;
75645;SDS011;64237;52.438;13.240;2022-10-15T10:12:55;8.38;;;4.78;;
75645;SDS011;64237;52.438;13.240;2022-10-15T10:17:58;8.02;;;4.07;;
75645;SDS011;64237;52.438;13.240;2022-10-15T10:20:28;7.93;;;4.28;;
75645;SDS011;64237;52.438;13.240;2022-10-15T10:30:46;7.03;;;3.88;;
75645;SDS011;64237;52.438;13.240;2022-10-15T10:33:18;7.68;;;4.05;;
75645;SDS011;64237;52.438;13.240;2022-10-15T10:35:49;7.47;;;3.92;;
75645;SDS011;64237;52.438;13.240;2022-10-15T10:38:23;9.23;;;4.63;;
75645;SDS011;64237;52.438;13.240;2022-10-15T10:41:10;7.68;;;4.05;;
75645;SDS011;64237;52.438;13.240;2022-10-15T10:43:36;6.90;;;3.58;;
75645;SDS011;64237;52.438;13.240;2022-10-15T10:46:25;8.15;;;3.85;;
75645;SDS011;64237;52.438;13.240;2022-10-15T10:48:51;7.15;;;3.65;;
75645;SDS011;64237;52.438;13.240;2022-10-15T10:56:24;6.22;;;3.63;;
75645;SDS011;64237;52.438;13.240;2022-10-15T10:58:57;7.93;;;3.85;;
75645;SDS011;64237;52.438;13.240;2022-10-15T11:01:27;6.93;;;3.80;;
75645;SDS011;64237;52.438;13.240;2022-10-15T11:03:53;6.85;;;3.60;;
75645;SDS011;64237;52.438;13.240;2022-10-15T11:22:51;5.93;;;3.13;;
75645;SDS011;64237;52.438;13.240;2022-10-15T11:30:48;5.70;;;2.75;;
75645;SDS011;64237;52.438;13.240;2022-10-15T11:38:50;5.88;;;2.83;;
75645;SDS011;64237;52.438;13.240;2022-10-15T11:49:25;5.23;;;2.77;;
75645;SDS011;64237;52.438;13.240;2022-10-15T11:57:42;6.78;;;2.65;;
75645;SDS011;64237;52.438;13.240;2022-10-15T12:03:26;5.07;;;2.05;;
75645;SDS011;64237;52.438;13.240;2022-10-15T12:08:33;5.22;;;2.53;;
75645;SDS011;64237;52.438;13.240;2022-10-15T12:14:00;4.68;;;2.55;;
75645;SDS011;64237;52.438;13.240;2022-10-15T12:19:35;4.88;;;2.40;;
75645;SDS011;64237;52.438;13.240;2022-10-15T12:22:08;3.97;;;2.10;;
75645;SDS011;64237;52.438;13.240;2022-10-15T12:29:47;3.47;;;1.98;;
75645;SDS011;64237;52.438;13.240;2022-10-15T12:35:17;4.57;;;2.20;;
75645;SDS011;64237;52.438;13.240;2022-10-15T12:37:46;5.45;;;2.13;;
75645;SDS011;64237;52.438;13.240;2022-10-15T12:42:52;3.88;;;2.08;;
75645;SDS011;64237;52.438;13.240;2022-10-15T12:45:33;5.40;;;2.50;;
75645;SDS011;64237;52.438;13.240;2022-10-15T12:50:32;4.23;;;2.10;;
75645;SDS011;64237;52.438;13.240;2022-10-15T12:53:03;3.92;;;2.00;;
75645;SDS011;64237;52.438;13.240;2022-10-15T12:55:36;4.80;;;2.20;;
75645;SDS011;64237;52.438;13.240;2022-10-15T12:58:04;4.75;;;2.03;;
75645;SDS011;64237;52.438;13.240;2022-10-15T13:00:48;3.67;;;2.05;;
75645;SDS011;64237;52.438;13.240;2022-10-15T13:05:47;3.20;;;1.80;;
75645;SDS011;64237;52.438;13.240;2022-10-15T13:08:23;4.15;;;1.75;;
75645;SDS011;64237;52.438;13.240;2022-10-15T13:10:53;3.85;;;1.48;;
75645;SDS011;64237;52.438;13.240;2022-10-15T13:13:28;2.72;;;1.58;;
75645;SDS011;64237;52.438;13.240;2022-10-15T13:15:59;3.25;;;1.85;;
75645;SDS011;64237;52.438;13.240;2022-10-15T13:18:26;4.65;;;1.60;;
75645;SDS011;64237;52.438;13.240;2022-10-15T13:20:54;4.38;;;1.80;;
75645;SDS011;64237;52.438;13.240;2022-10-15T13:23:28;4.70;;;2.05;;
75645;SDS011;64237;52.438;13.240;2022-10-15T13:28:50;2.38;;;1.58;;
75645;SDS011;64237;52.438;13.240;2022-10-15T13:31:23;3.30;;;1.80;;
75645;SDS011;64237;52.438;13.240;2022-10-15T13:33:52;3.88;;;1.80;;
75645;SDS011;64237;52.438;13.240;2022-10-15T13:36:39;4.05;;;1.50;;
75645;SDS011;64237;52.438;13.240;2022-10-15T13:39:06;3.35;;;1.88;;
75645;SDS011;64237;52.438;13.240;2022-10-15T13:41:44;4.95;;;2.17;;
75645;SDS011;64237;52.438;13.240;2022-10-15T13:44:22;4.13;;;1.90;;
75645;SDS011;64237;52.438;13.240;2022-10-15T13:46:48;4.57;;;1.75;;
75645;SDS011;64237;52.438;13.240;2022-10-15T13:49:14;4.22;;;2.38;;
75645;SDS011;64237;52.438;13.240;2022-10-15T13:51:42;4.85;;;1.83;;
75645;SDS011;64237;52.438;13.240;2022-10-15T13:54:11;4.13;;;1.90;;
75645;SDS011;64237;52.438;13.240;2022-10-15T13:56:41;4.80;;;1.90;;
75645;SDS011;64237;52.438;13.240;2022-10-15T13:59:19;8.18;;;1.95;;
75645;SDS011;64237;52.438;13.240;2022-10-15T14:01:51;4.97;;;2.00;;
75645;SDS011;64237;52.438;13.240;2022-10-15T14:04:21;5.82;;;2.00;;
75645;SDS011;64237;52.438;13.240;2022-10-15T14:06:57;3.05;;;1.83;;
75645;SDS011;64237;52.438;13.240;2022-10-15T14:09:31;6.75;;;1.70;;
75645;SDS011;64237;52.438;13.240;2022-10-15T14:11:57;2.65;;;1.50;;
75645;SDS011;64237;52.438;13.240;2022-10-15T14:17:02;3.75;;;1.50;;
75645;SDS011;64237;52.438;13.240;2022-10-15T14:19:29;3.30;;;1.45;;
75645;SDS011;64237;52.438;13.240;2022-10-15T14:21:56;3.08;;;1.70;;
75645;SDS011;64237;52.438;13.240;2022-10-15T14:24:25;2.30;;;1.40;;
75645;SDS011;64237;52.438;13.240;2022-10-15T14:26:59;1.75;;;1.27;;
75645;SDS011;64237;52.438;13.240;2022-10-15T14:29:39;3.72;;;1.50;;
75645;SDS011;64237;52.438;13.240;2022-10-15T14:32:25;2.92;;;1.70;;
75645;SDS011;64237;52.438;13.240;2022-10-15T14:34:59;2.72;;;1.60;;
75645;SDS011;64237;52.438;13.240;2022-10-15T14:40:28;2.38;;;1.40;;
75645;SDS011;64237;52.438;13.240;2022-10-15T14:43:05;2.53;;;1.35;;
75645;SDS011;64237;52.438;13.240;2022-10-15T14:48:21;2.85;;;1.23;;
75645;SDS011;64237;52.438;13.240;2022-10-15T14:50:48;2.75;;;1.33;;
75645;SDS011;64237;52.438;13.240;2022-10-15T14:53:18;2.53;;;1.20;;
75645;SDS011;64237;52.438;13.240;2022-10-15T14:55:52;2.40;;;1.20;;
75645;SDS011;64237;52.438;13.240;2022-10-15T14:58:22;2.67;;;1.20;;
75645;SDS011;64237;52.438;13.240;2022-10-15T15:03:21;3.10;;;1.27;;
75645;SDS011;64237;52.438;13.240;2022-10-15T15:05:55;3.70;;;1.40;;
75645;SDS011;64237;52.438;13.240;2022-10-15T15:08:22;1.90;;;1.23;;
75645;SDS011;64237;52.438;13.240;2022-10-15T15:10:50;5.53;;;1.30;;
75645;SDS011;64237;52.438;13.240;2022-10-15T15:13:20;2.22;;;1.15;;
75645;SDS011;64237;52.438;13.240;2022-10-15T15:15:47;3.30;;;1.55;;
75645;SDS011;64237;52.438;13.240;2022-10-15T15:18:13;3.15;;;1.52;;
75645;SDS011;64237;52.438;13.240;2022-10-15T15:20:38;2.63;;;1.60;;
75645;SDS011;64237;52.438;13.240;2022-10-15T15:23:08;2.17;;;1.27;;
75645;SDS011;64237;52.438;13.240;2022-10-15T15:25:37;2.55;;;1.17;;
75645;SDS011;64237;52.438;13.240;2022-10-15T15:28:05;3.10;;;1.33;;
75645;SDS011;64237;52.438;13.240;2022-10-15T15:30:38;3.53;;;1.30;;
75645;SDS011;64237;52.438;13.240;2022-10-15T15:33:07;3.65;;;1.50;;
75645;SDS011;64237;52.438;13.240;2022-10-15T15:35:41;2.40;;;1.20;;
75645;SDS011;64237;52.438;13.240;2022-10-15T15:38:14;2.03;;;1.23;;
75645;SDS011;64237;52.438;13.240;2022-10-15T15:40:41;4.20;;;1.23;;
75645;SDS011;64237;52.438;13.240;2022-10-15T15:43:07;3.25;;;1.30;;
75645;SDS011;64237;52.438;13.240;2022-10-15T15:45:33;1.88;;;1.20;;
75645;SDS011;64237;52.438;13.240;2022-10-15T15:47:58;1.60;;;1.15;;
75645;SDS011;64237;52.438;13.240;2022-10-15T15:50:27;1.88;;;1.23;;
75645;SDS011;64237;52.438;13.240;2022-10-15T15:52:53;4.10;;;1.33;;
75645;SDS011;64237;52.438;13.240;2022-10-15T15:55:18;1.83;;;1.33;;
75645;SDS011;64237;52.438;13.240;2022-10-15T15:57:45;2.15;;;1.20;;
75645;SDS011;64237;52.438;13.240;2022-10-15T16:00:11;2.75;;;1.35;;
75645;SDS011;64237;52.438;13.240;2022-10-15T16:02:37;2.88;;;1.30;;
75645;SDS011;64237;52.438;13.240;2022-10-15T16:05:07;3.22;;;1.67;;
75645;SDS011;64237;52.438;13.240;2022-10-15T16:07:34;2.42;;;1.40;;
75645;SDS011;64237;52.438;13.240;2022-10-15T16:10:00;3.65;;;1.50;;
75645;SDS011;64237;52.438;13.240;2022-10-15T16:12:25;3.63;;;1.50;;
75645;SDS011;64237;52.438;13.240;2022-10-15T16:14:51;2.72;;;1.60;;
75645;SDS011;64237;52.438;13.240;2022-10-15T16:17:16;4.70;;;1.60;;
75645;SDS011;64237;52.438;13.240;2022-10-15T16:19:42;2.55;;;1.45;;
75645;SDS011;64237;52.438;13.240;2022-10-15T16:22:07;4.25;;;1.70;;
75645;SDS011;64237;52.438;13.240;2022-10-15T16:24:33;3.80;;;1.70;;
75645;SDS011;64237;52.438;13.240;2022-10-15T16:26:59;4.65;;;2.10;;
75645;SDS011;64237;52.438;13.240;2022-10-15T16:29:25;11.07;;;2.60;;
75645;SDS011;64237;52.438;13.240;2022-10-15T16:31:50;6.50;;;1.93;;
75645;SDS011;64237;52.438;13.240;2022-10-15T16:34:15;4.43;;;2.00;;
75645;SDS011;64237;52.438;13.240;2022-10-15T16:36:50;5.47;;;1.85;;
75645;SDS011;64237;52.438;13.240;2022-10-15T16:39:18;5.97;;;2.10;;
75645;SDS011;64237;52.438;13.240;2022-10-15T16:41:43;5.20;;;2.00;;
75645;SDS011;64237;52.438;13.240;2022-10-15T16:44:09;5.95;;;1.90;;
75645;SDS011;64237;52.438;13.240;2022-10-15T16:46:34;5.15;;;2.03;;
75645;SDS011;64237;52.438;13.240;2022-10-15T16:49:00;4.55;;;1.90;;
75645;SDS011;64237;52.438;13.240;2022-10-15T16:51:26;4.63;;;2.03;;
75645;SDS011;64237;52.438;13.240;2022-10-15T16:53:51;6.60;;;1.90;;